Time;durP1;ratioP1;P1;durP2;ratioP2;P2;SDS_P1;SDS_P2;PMS_P1;PMS_P2;Temp;Humidity;BMP_temperature;BMP_pressure;BME280_temperature;BME280_humidity;BME280_pressure;Samples;Min_cycle;Max_cycle;Signal;HPM_P1;HPM_P2
2021/12/26 00:02:09;;;;;;;12.52;8.15;;;-5.20;99.90;;;;;;5054279;28;20040;-53
2021/12/26 00:04:36;;;;;;;14.65;8.70;;;-5.20;99.90;;;;;;5054185;28;20027;-51
2021/12/26 00:07:02;;;;;;;10.85;7.00;;;-5.30;99.90;;;;;;5055171;28;20092;-51
2021/12/26 00:09:28;;;;;;;11.00;7.93;;;-5.30;99.90;;;;;;5054287;28;20056;-53
2021/12/26 00:11:53;;;;;;;18.45;8.05;;;-5.30;99.90;;;;;;5054254;28;20055;-52
2021/12/26 00:14:19;;;;;;;13.70;8.57;;;-5.30;99.90;;;;;;5054401;28;20048;-52
2021/12/26 00:16:45;;;;;;;14.52;8.07;;;-5.40;99.90;;;;;;5052495;28;20523;-51
2021/12/26 00:19:11;;;;;;;13.20;8.13;;;-5.40;99.90;;;;;;5053506;28;20037;-51
2021/12/26 00:21:37;;;;;;;14.80;7.70;;;-5.40;99.90;;;;;;5054106;28;20025;-51
2021/12/26 00:24:03;;;;;;;12.63;7.80;;;-5.40;99.90;;;;;;5053414;28;20095;-51
2021/12/26 00:26:31;;;;;;;15.10;8.13;;;-5.40;99.90;;;;;;5036369;28;20036;-52
2021/12/26 00:28:57;;;;;;;12.55;8.30;;;-5.40;99.90;;;;;;5035677;28;20148;-53
2021/12/26 00:31:23;;;;;;;13.82;7.82;;;-5.50;99.90;;;;;;5053592;28;20068;-52
2021/12/26 00:33:48;;;;;;;11.43;7.10;;;-5.40;99.90;;;;;;5053601;28;20040;-49
2021/12/26 00:36:14;;;;;;;12.63;8.27;;;-5.40;99.90;;;;;;5053423;28;20051;-50
2021/12/26 00:38:40;;;;;;;13.77;8.10;;;-5.40;99.90;;;;;;5053893;28;20035;-48
2021/12/26 00:41:05;;;;;;;14.90;8.27;;;-5.40;99.90;;;;;;5053021;28;20021;-51
2021/12/26 00:43:31;;;;;;;14.43;8.23;;;-5.40;99.90;;;;;;5052648;28;20472;-52
2021/12/26 00:45:57;;;;;;;12.55;8.18;;;-5.50;99.90;;;;;;5053510;28;20033;-52
2021/12/26 00:48:22;;;;;;;13.95;8.52;;;-5.50;99.90;;;;;;5053616;28;20096;-50
2021/12/26 00:50:48;;;;;;;16.00;8.15;;;-5.50;99.90;;;;;;5053522;28;20025;-49
2021/12/26 00:53:14;;;;;;;13.93;8.50;;;-5.50;99.90;;;;;;5053659;28;20025;-54
2021/12/26 00:55:40;;;;;;;14.10;8.35;;;-5.50;99.90;;;;;;5053280;28;20036;-52
2021/12/26 00:58:06;;;;;;;13.38;8.43;;;-5.50;99.90;;;;;;5035035;28;20079;-51
2021/12/26 01:00:39;;;;;;;12.02;7.95;;;-5.50;99.90;;;;;;5052936;28;20037;-49
2021/12/26 01:03:05;;;;;;;12.13;8.25;;;-5.50;99.90;;;;;;5053103;28;20148;-49
2021/12/26 01:05:33;;;;;;;16.02;8.38;;;-5.50;99.90;;;;;;5052668;28;20361;-48
2021/12/26 01:08:02;;;;;;;15.55;8.27;;;-5.40;99.90;;;;;;5053222;28;20056;-47
2021/12/26 01:10:54;;;;;;;12.40;7.25;;;-5.40;99.90;;;;;;5053189;28;20064;-52
2021/12/26 01:13:44;;;;;;;13.40;8.05;;;-5.40;99.90;;;;;;5052520;28;20416;-52
2021/12/26 01:16:11;;;;;;;13.27;7.63;;;-5.40;99.90;;;;;;5052273;28;20052;-47
2021/12/26 01:18:42;;;;;;;13.10;7.97;;;-5.30;99.90;;;;;;5034927;28;20086;-49
2021/12/26 01:21:20;;;;;;;13.25;8.35;;;-5.30;99.90;;;;;;5053070;28;20032;-50
2021/12/26 01:23:51;;;;;;;14.88;8.63;;;-5.30;99.90;;;;;;5040749;28;20037;-50
2021/12/26 01:26:18;;;;;;;12.63;8.23;;;-5.30;99.90;;;;;;5035682;28;20083;-52
2021/12/26 01:28:44;;;;;;;12.75;8.82;;;-5.30;99.90;;;;;;5050455;28;20032;-49
2021/12/26 01:31:11;;;;;;;15.65;8.90;;;-5.30;99.90;;;;;;5034584;28;20037;-52
2021/12/26 01:33:37;;;;;;;15.82;8.73;;;-5.20;99.90;;;;;;5033952;28;20053;-52
2021/12/26 01:36:04;;;;;;;14.63;9.32;;;-5.20;99.90;;;;;;5047698;28;20405;-50
2021/12/26 01:38:30;;;;;;;15.32;8.98;;;-5.20;99.90;;;;;;5055080;28;20489;-52
2021/12/26 01:40:57;;;;;;;12.30;8.70;;;-5.10;99.90;;;;;;5036954;28;20033;-51
2021/12/26 01:43:30;;;;;;;15.98;8.50;;;-5.10;99.90;;;;;;5054763;28;20025;-55
2021/12/26 01:45:56;;;;;;;13.50;8.60;;;-5.10;99.90;;;;;;5055508;28;20392;-49
2021/12/26 01:48:22;;;;;;;14.23;8.20;;;-5.10;99.90;;;;;;5055084;28;20029;-50
2021/12/26 01:50:51;;;;;;;12.60;7.93;;;-5.10;99.90;;;;;;5054146;28;20396;-52
2021/12/26 01:53:19;;;;;;;13.55;8.68;;;-5.10;99.90;;;;;;5053798;28;20068;-48
2021/12/26 01:55:46;;;;;;;14.27;8.95;;;-5.10;99.90;;;;;;5053955;28;20040;-52
2021/12/26 01:58:27;;;;;;;11.52;8.27;;;-5.10;99.90;;;;;;5021337;28;20098;-46
2021/12/26 02:01:05;;;;;;;12.63;8.00;;;-5.10;99.90;;;;;;5054355;28;20557;-50
2021/12/26 02:03:30;;;;;;;13.40;9.20;;;-5.10;99.90;;;;;;5053767;28;20136;-49
2021/12/26 02:05:56;;;;;;;12.05;8.85;;;-5.10;99.90;;;;;;5054177;28;20048;-49
2021/12/26 02:08:22;;;;;;;16.35;9.13;;;-5.20;99.90;;;;;;5054092;28;20097;-51
2021/12/26 02:10:48;;;;;;;14.35;8.95;;;-5.40;99.90;;;;;;5054241;28;20064;-53
2021/12/26 02:13:14;;;;;;;15.35;9.05;;;-5.40;99.90;;;;;;5053289;28;20112;-54
2021/12/26 02:15:40;;;;;;;14.73;9.05;;;-5.50;99.90;;;;;;5054609;28;20024;-56
2021/12/26 02:18:07;;;;;;;14.45;9.02;;;-5.70;99.90;;;;;;5054301;28;20036;-52
2021/12/26 02:23:31;;;;;;;17.13;9.20;;;-5.90;99.90;;;;;;5024579;28;20053;-52
2021/12/26 02:28:26;;;;;;;15.90;9.52;;;-5.90;99.90;;;;;;5053814;28;20027;-52
2021/12/26 02:30:54;;;;;;;17.10;10.02;;;-5.90;99.90;;;;;;5053398;28;20033;-49
2021/12/26 02:33:21;;;;;;;17.33;9.65;;;-5.90;99.90;;;;;;5053181;28;20037;-52
2021/12/26 02:35:49;;;;;;;14.73;9.90;;;-5.90;99.90;;;;;;5053669;28;20025;-50
2021/12/26 02:38:16;;;;;;;17.10;10.27;;;-5.90;99.90;;;;;;5054231;28;20037;-53
2021/12/26 02:40:44;;;;;;;12.13;8.63;;;-5.90;99.90;;;;;;5053408;28;20048;-52
2021/12/26 02:43:10;;;;;;;18.40;10.23;;;-5.80;99.90;;;;;;5036082;28;20645;-51
2021/12/26 02:45:36;;;;;;;14.18;8.73;;;-5.80;99.90;;;;;;5053418;28;20029;-48
2021/12/26 02:48:06;;;;;;;14.82;9.63;;;-5.90;99.90;;;;;;5033725;28;20022;-52
2021/12/26 02:50:31;;;;;;;16.05;9.30;;;-5.90;99.90;;;;;;5033938;28;20105;-47
2021/12/26 02:52:59;;;;;;;14.85;9.52;;;-5.90;99.90;;;;;;5052678;28;20119;-49
2021/12/26 02:55:26;;;;;;;17.10;9.20;;;-5.90;99.90;;;;;;5053678;28;20128;-49
2021/12/26 02:57:57;;;;;;;17.30;9.45;;;-5.80;99.90;;;;;;5052941;28;20029;-51
2021/12/26 03:00:25;;;;;;;17.90;9.70;;;-5.80;99.90;;;;;;5053552;28;20029;-50
2021/12/26 03:02:54;;;;;;;16.25;9.25;;;-5.80;99.90;;;;;;5053224;28;20431;-51
2021/12/26 03:05:21;;;;;;;14.50;8.90;;;-5.90;99.90;;;;;;5055008;28;20051;-50
2021/12/26 03:07:47;;;;;;;17.08;9.52;;;-5.90;99.90;;;;;;5057328;28;20025;-47
2021/12/26 03:10:21;;;;;;;15.82;8.82;;;-5.90;99.90;;;;;;5057388;28;20056;-49
2021/12/26 03:13:01;;;;;;;16.40;9.18;;;-5.90;99.90;;;;;;5039368;28;20033;-53
2021/12/26 03:15:28;;;;;;;16.02;9.82;;;-5.90;99.90;;;;;;5057718;28;20114;-51
2021/12/26 03:17:55;;;;;;;18.02;10.15;;;-6.00;99.90;;;;;;5057194;28;20040;-49
2021/12/26 03:20:25;;;;;;;15.18;9.50;;;-6.00;99.90;;;;;;5039181;28;20029;-52
2021/12/26 03:22:51;;;;;;;14.75;9.93;;;-6.00;99.90;;;;;;5056646;28;20040;-49
2021/12/26 03:25:22;;;;;;;14.52;9.45;;;-5.90;99.90;;;;;;5056794;28;20486;-54
2021/12/26 03:27:49;;;;;;;16.45;9.25;;;-5.90;99.90;;;;;;5056820;28;20512;-53
2021/12/26 03:30:19;;;;;;;13.15;8.85;;;-5.80;99.90;;;;;;5057054;28;20037;-51
2021/12/26 03:32:45;;;;;;;17.80;9.40;;;-5.90;99.90;;;;;;5056981;28;20540;-51
2021/12/26 03:35:10;;;;;;;15.75;9.32;;;-5.80;99.90;;;;;;5056846;28;20086;-53
2021/12/26 03:37:37;;;;;;;32.08;15.80;;;-5.70;99.90;;;;;;5057404;28;20112;-51
2021/12/26 03:40:04;;;;;;;19.08;10.70;;;-5.70;99.90;;;;;;5057112;28;20052;-49
2021/12/26 03:42:31;;;;;;;13.30;8.75;;;-5.70;99.90;;;;;;5056913;28;20040;-49
2021/12/26 03:44:57;;;;;;;17.65;10.15;;;-5.90;99.90;;;;;;5039491;28;20025;-47
2021/12/26 03:47:24;;;;;;;15.45;9.10;;;-6.00;99.90;;;;;;5057524;28;20094;-49
2021/12/26 03:49:50;;;;;;;16.08;9.20;;;-6.10;99.90;;;;;;5056968;28;20033;-50
2021/12/26 03:52:17;;;;;;;15.90;9.52;;;-6.10;99.90;;;;;;5056441;28;20421;-50
2021/12/26 03:54:42;;;;;;;16.60;9.43;;;-6.10;99.90;;;;;;5056779;28;20029;-48
2021/12/26 03:57:08;;;;;;;16.73;9.90;;;-6.10;99.90;;;;;;5056354;28;20048;-53
2021/12/26 03:59:34;;;;;;;13.88;9.50;;;-6.10;99.90;;;;;;5056442;28;20037;-53
2021/12/26 04:01:59;;;;;;;15.63;9.75;;;-6.00;99.90;;;;;;5056051;28;20025;-53
2021/12/26 04:04:25;;;;;;;16.27;9.60;;;-5.90;99.90;;;;;;5038682;28;20040;-54
2021/12/26 04:06:51;;;;;;;15.40;9.38;;;-6.00;99.90;;;;;;5056318;28;20524;-51
2021/12/26 04:09:17;;;;;;;15.05;10.35;;;-6.00;99.90;;;;;;5057523;28;20033;-56
2021/12/26 04:11:45;;;;;;;16.70;9.70;;;-6.20;99.90;;;;;;5057923;28;20032;-52
2021/12/26 04:14:13;;;;;;;16.25;9.65;;;-6.30;99.90;;;;;;5056388;28;20021;-51
2021/12/26 04:16:38;;;;;;;17.08;10.02;;;-6.20;99.90;;;;;;5056060;28;20083;-50
2021/12/26 04:19:04;;;;;;;14.50;9.60;;;-6.20;99.90;;;;;;5055540;28;20033;-50
2021/12/26 04:21:30;;;;;;;14.85;9.10;;;-6.20;99.90;;;;;;5056113;28;20051;-52
2021/12/26 04:23:56;;;;;;;14.85;9.63;;;-6.10;99.90;;;;;;5055632;28;20436;-52
2021/12/26 04:26:21;;;;;;;16.38;9.40;;;-6.00;99.90;;;;;;5056036;28;20112;-51
2021/12/26 04:28:47;;;;;;;13.75;8.77;;;-6.00;99.90;;;;;;5055929;28;20033;-51
2021/12/26 04:31:13;;;;;;;17.30;9.50;;;-5.90;99.90;;;;;;5055297;28;20424;-53
2021/12/26 04:33:39;;;;;;;14.15;9.23;;;-5.90;99.90;;;;;;5055671;28;20033;-53
2021/12/26 04:36:05;;;;;;;14.90;9.52;;;-5.80;99.90;;;;;;5055086;28;20025;-52
2021/12/26 04:38:31;;;;;;;19.70;10.73;;;-5.80;99.90;;;;;;5055258;28;20025;-53
2021/12/26 04:40:57;;;;;;;15.57;10.18;;;-5.80;99.90;;;;;;5054339;28;20041;-51
2021/12/26 04:43:24;;;;;;;13.95;9.25;;;-5.80;99.90;;;;;;5037193;28;20079;-53
2021/12/26 04:45:50;;;;;;;17.10;10.35;;;-5.90;99.90;;;;;;5055129;28;20032;-48
2021/12/26 04:48:15;;;;;;;16.98;9.13;;;-5.80;99.90;;;;;;5054706;28;20479;-49
2021/12/26 04:50:41;;;;;;;16.10;9.35;;;-5.80;99.90;;;;;;5054581;28;20033;-54
2021/12/26 04:53:08;;;;;;;14.30;9.27;;;-5.80;99.90;;;;;;5054447;28;20028;-53
2021/12/26 04:55:34;;;;;;;14.43;8.98;;;-5.80;99.90;;;;;;5055246;28;20377;-52
2021/12/26 04:58:00;;;;;;;15.82;9.68;;;-5.80;99.90;;;;;;5054380;28;20067;-51
2021/12/26 05:00:28;;;;;;;14.98;8.88;;;-5.80;99.90;;;;;;5054635;28;20407;-49
2021/12/26 05:02:56;;;;;;;17.13;9.90;;;-5.80;99.90;;;;;;5054840;28;20588;-47
2021/12/26 05:05:22;;;;;;;16.98;9.48;;;-5.80;99.90;;;;;;5054758;28;20029;-49
2021/12/26 05:07:48;;;;;;;17.27;9.65;;;-5.80;99.90;;;;;;5054973;28;20029;-52
2021/12/26 05:10:18;;;;;;;13.85;9.38;;;-5.90;99.90;;;;;;5054731;28;20381;-49
2021/12/26 05:12:44;;;;;;;15.25;10.07;;;-5.80;99.90;;;;;;5054658;28;20048;-53
2021/12/26 05:15:11;;;;;;;16.33;9.82;;;-5.80;99.90;;;;;;5054924;28;20032;-49
2021/12/26 05:17:40;;;;;;;15.70;9.50;;;-5.80;99.90;;;;;;5055054;28;20554;-53
2021/12/26 05:20:07;;;;;;;15.30;9.80;;;-5.80;99.90;;;;;;5054561;28;20045;-53
2021/12/26 05:22:32;;;;;;;13.32;9.07;;;-5.80;99.90;;;;;;5054007;28;20086;-49
2021/12/26 05:24:58;;;;;;;14.93;9.30;;;-5.80;99.90;;;;;;5054319;28;20041;-52
2021/12/26 05:27:24;;;;;;;16.75;10.32;;;-5.90;99.90;;;;;;5054576;28;20029;-51
2021/12/26 05:29:49;;;;;;;13.80;9.73;;;-5.90;99.90;;;;;;5054517;28;20124;-49
2021/12/26 05:32:15;;;;;;;17.35;10.68;;;-6.00;99.90;;;;;;5050244;28;20033;-50
2021/12/26 05:34:40;;;;;;;16.92;9.15;;;-5.90;99.90;;;;;;5034698;28;20040;-49
2021/12/26 05:37:06;;;;;;;16.15;9.32;;;-6.00;99.90;;;;;;5036078;28;20040;-52
2021/12/26 05:39:32;;;;;;;15.60;9.77;;;-5.90;99.90;;;;;;5035194;28;20033;-52
2021/12/26 05:41:57;;;;;;;17.27;9.50;;;-5.90;99.90;;;;;;5051954;28;20094;-49
2021/12/26 05:44:23;;;;;;;14.20;9.45;;;-5.90;99.90;;;;;;5054881;28;20021;-51
2021/12/26 05:46:48;;;;;;;14.10;8.98;;;-5.90;99.90;;;;;;5053996;28;20040;-53
2021/12/26 05:49:14;;;;;;;15.63;9.63;;;-5.90;99.90;;;;;;5054568;28;20404;-54
2021/12/26 05:51:40;;;;;;;16.63;9.90;;;-5.90;99.90;;;;;;5053886;28;20036;-49
2021/12/26 05:54:06;;;;;;;16.30;9.98;;;-5.90;99.90;;;;;;5053813;28;20029;-49
2021/12/26 05:56:31;;;;;;;18.13;10.50;;;-6.00;99.90;;;;;;5054361;28;20037;-50
2021/12/26 05:58:57;;;;;;;16.33;9.68;;;-6.00;99.90;;;;;;5053902;28;20468;-53
2021/12/26 06:01:23;;;;;;;17.70;10.50;;;-6.00;99.90;;;;;;5053958;28;20047;-51
2021/12/26 06:03:49;;;;;;;15.60;9.93;;;-6.00;99.90;;;;;;5054417;28;20029;-54
2021/12/26 06:06:14;;;;;;;15.35;9.38;;;-6.00;99.90;;;;;;5036570;28;20057;-50
2021/12/26 06:08:40;;;;;;;18.13;9.80;;;-6.00;99.90;;;;;;5054909;28;20534;-48
2021/12/26 06:11:05;;;;;;;17.58;10.18;;;-6.00;99.90;;;;;;5053848;28;20067;-48
2021/12/26 06:13:32;;;;;;;14.57;9.50;;;-6.10;99.90;;;;;;5053965;28;20048;-51
2021/12/26 06:15:58;;;;;;;14.18;9.25;;;-6.10;99.90;;;;;;5053171;28;20028;-51
2021/12/26 06:18:24;;;;;;;15.88;9.55;;;-6.10;99.90;;;;;;5053842;28;20036;-51
2021/12/26 06:20:50;;;;;;;16.15;9.68;;;-6.10;99.90;;;;;;5052757;28;20037;-50
2021/12/26 06:23:16;;;;;;;13.25;8.70;;;-6.00;99.90;;;;;;5053243;28;20126;-51
2021/12/26 06:25:41;;;;;;;16.98;9.45;;;-6.10;99.90;;;;;;5052694;28;20032;-53
2021/12/26 06:28:07;;;;;;;14.57;9.15;;;-6.10;99.90;;;;;;5053255;28;20033;-51
2021/12/26 06:30:34;;;;;;;15.32;9.25;;;-6.10;99.90;;;;;;5052813;28;20044;-51
2021/12/26 06:33:00;;;;;;;13.85;9.93;;;-6.00;99.90;;;;;;5052819;28;20032;-50
2021/12/26 06:35:25;;;;;;;13.38;8.70;;;-6.10;99.90;;;;;;5053392;28;20060;-52
2021/12/26 06:37:51;;;;;;;16.60;9.90;;;-6.10;99.90;;;;;;5052427;28;20029;-48
2021/12/26 06:40:17;;;;;;;15.18;9.20;;;-6.10;99.90;;;;;;5051411;28;20044;-50
2021/12/26 06:42:45;;;;;;;14.80;9.57;;;-6.10;99.90;;;;;;5052279;28;20025;-49
2021/12/26 06:45:14;;;;;;;15.02;9.48;;;-6.10;99.90;;;;;;5052745;28;20033;-48
2021/12/26 06:47:42;;;;;;;19.08;10.15;;;-6.20;99.90;;;;;;5053536;28;20021;-51
2021/12/26 06:50:08;;;;;;;15.63;9.50;;;-6.20;99.90;;;;;;5052946;28;20565;-51
2021/12/26 06:52:34;;;;;;;13.80;9.23;;;-6.20;99.90;;;;;;5052667;28;20128;-50
2021/12/26 06:55:00;;;;;;;14.77;9.27;;;-6.20;99.90;;;;;;5052889;28;20122;-48
2021/12/26 06:57:25;;;;;;;16.80;9.32;;;-6.20;99.90;;;;;;5053149;28;20025;-52
2021/12/26 06:59:51;;;;;;;14.55;9.35;;;-6.20;99.90;;;;;;5052578;28;20029;-48
2021/12/26 07:02:16;;;;;;;16.42;9.80;;;-6.20;99.90;;;;;;5032784;28;20163;-49
2021/12/26 07:04:42;;;;;;;16.27;10.13;;;-6.20;99.90;;;;;;5052572;28;20037;-49
2021/12/26 07:07:08;;;;;;;13.23;9.07;;;-6.10;99.90;;;;;;5052773;28;20099;-48
2021/12/26 07:09:33;;;;;;;15.20;8.80;;;-6.20;99.90;;;;;;5052583;28;20056;-50
2021/12/26 07:11:59;;;;;;;16.35;9.70;;;-6.20;99.90;;;;;;5053224;28;20048;-53
2021/12/26 07:14:25;;;;;;;18.27;10.60;;;-6.20;99.90;;;;;;5052136;28;20052;-53
2021/12/26 07:16:50;;;;;;;14.25;8.93;;;-6.20;99.90;;;;;;5053285;28;20039;-49
2021/12/26 07:19:16;;;;;;;16.63;9.68;;;-6.20;99.90;;;;;;5052475;28;20086;-52
2021/12/26 07:21:42;;;;;;;15.68;9.05;;;-6.20;99.90;;;;;;5052416;28;20467;-52
2021/12/26 07:24:07;;;;;;;13.07;8.90;;;-6.20;99.90;;;;;;5034595;28;20037;-51
2021/12/26 07:26:33;;;;;;;16.92;10.05;;;-6.30;99.90;;;;;;5052673;28;20033;-52
2021/12/26 07:28:59;;;;;;;17.20;9.50;;;-6.20;99.90;;;;;;5034240;28;20768;-52
2021/12/26 07:31:25;;;;;;;17.05;10.35;;;-6.30;99.90;;;;;;5052149;28;20044;-49
2021/12/26 07:33:51;;;;;;;16.17;10.60;;;-6.40;99.90;;;;;;5052185;28;20396;-53
2021/12/26 07:36:17;;;;;;;18.27;10.43;;;-6.50;99.90;;;;;;5052431;28;20025;-48
2021/12/26 07:38:43;;;;;;;15.32;9.43;;;-6.50;99.90;;;;;;5052052;28;20027;-49
2021/12/26 07:41:08;;;;;;;23.77;13.85;;;-6.40;99.90;;;;;;5051732;28;20036;-49
2021/12/26 07:43:34;;;;;;;29.13;15.82;;;-6.40;99.90;;;;;;5051722;28;20090;-50
2021/12/26 07:45:59;;;;;;;18.58;11.38;;;-6.50;99.90;;;;;;5052205;28;20052;-55
2021/12/26 07:48:25;;;;;;;18.48;11.15;;;-6.50;99.90;;;;;;5054114;28;20067;-48
2021/12/26 07:50:51;;;;;;;14.65;9.10;;;-6.50;99.90;;;;;;5054537;28;20496;-49
2021/12/26 07:53:16;;;;;;;16.17;9.73;;;-6.50;99.90;;;;;;5056044;28;20033;-49
2021/12/26 07:55:42;;;;;;;15.55;9.50;;;-6.50;99.90;;;;;;5037965;28;20047;-53
2021/12/26 07:58:07;;;;;;;16.30;9.77;;;-6.50;99.90;;;;;;5055424;28;20799;-48
2021/12/26 08:00:33;;;;;;;27.90;15.75;;;-6.50;99.90;;;;;;5055918;28;20098;-48
2021/12/26 08:02:59;;;;;;;26.00;12.95;;;-6.60;99.90;;;;;;5055833;28;20040;-49
2021/12/26 08:05:25;;;;;;;25.17;13.88;;;-6.60;99.90;;;;;;5055813;28;20397;-49
2021/12/26 08:07:51;;;;;;;23.80;13.65;;;-6.60;99.90;;;;;;5055909;28;20037;-49
2021/12/26 08:10:17;;;;;;;19.40;12.70;;;-6.70;99.90;;;;;;5056257;28;20542;-53
2021/12/26 08:12:43;;;;;;;32.47;17.33;;;-6.70;99.90;;;;;;5056344;28;20040;-50
2021/12/26 08:15:09;;;;;;;23.42;14.13;;;-6.70;99.90;;;;;;5055559;28;20037;-50
2021/12/26 08:17:38;;;;;;;26.27;14.77;;;-6.70;99.90;;;;;;5034130;28;20492;-50
2021/12/26 08:20:05;;;;;;;27.02;16.52;;;-6.60;99.90;;;;;;5049330;28;20420;-48
2021/12/26 08:22:31;;;;;;;28.30;15.98;;;-6.60;99.90;;;;;;5054769;28;20111;-52
2021/12/26 08:24:57;;;;;;;23.65;14.40;;;-6.50;99.90;;;;;;5055614;28;20037;-50
2021/12/26 08:27:22;;;;;;;26.38;13.85;;;-6.40;99.90;;;;;;5055549;28;20065;-52
2021/12/26 08:29:48;;;;;;;25.65;13.57;;;-6.40;99.90;;;;;;5054874;28;20064;-49
2021/12/26 08:32:16;;;;;;;22.70;13.70;;;-6.30;99.90;;;;;;5055443;28;20029;-59
2021/12/26 08:34:43;;;;;;;25.02;13.55;;;-6.50;99.90;;;;;;5054630;28;20056;-53
2021/12/26 08:37:09;;;;;;;28.75;14.95;;;-6.50;99.90;;;;;;5055022;28;20151;-51
2021/12/26 08:39:39;;;;;;;29.13;16.25;;;-6.40;99.90;;;;;;5054276;28;20029;-55
2021/12/26 08:42:07;;;;;;;30.67;15.30;;;-6.50;99.90;;;;;;5054935;28;20036;-52
2021/12/26 08:44:35;;;;;;;44.20;24.48;;;-6.40;99.90;;;;;;5054656;28;20021;-53
2021/12/26 08:47:02;;;;;;;29.77;16.23;;;-6.40;99.90;;;;;;5055371;28;20025;-53
2021/12/26 08:49:28;;;;;;;28.05;15.32;;;-6.50;99.90;;;;;;5055091;28;20033;-50
2021/12/26 08:51:53;;;;;;;27.63;15.48;;;-6.60;99.90;;;;;;5055182;28;20102;-49
2021/12/26 08:54:22;;;;;;;27.08;15.32;;;-6.50;99.90;;;;;;5054579;28;20040;-52
2021/12/26 08:56:48;;;;;;;26.55;15.48;;;-6.50;99.90;;;;;;5055091;28;20033;-51
2021/12/26 08:59:14;;;;;;;27.58;14.50;;;-6.30;99.90;;;;;;5054392;28;20039;-51
2021/12/26 09:01:40;;;;;;;26.35;14.63;;;-6.10;99.90;;;;;;5054567;28;20029;-51
2021/12/26 09:04:05;;;;;;;27.83;16.20;;;-6.00;99.90;;;;;;5053710;28;20086;-48
2021/12/26 09:06:31;;;;;;;25.95;15.15;;;-6.10;99.90;;;;;;5027239;28;20060;-49
2021/12/26 09:08:56;;;;;;;26.58;14.95;;;-6.00;99.90;;;;;;5030159;28;20033;-53
2021/12/26 09:11:22;;;;;;;26.35;14.07;;;-6.00;99.90;;;;;;5054367;28;20032;-53
2021/12/26 09:13:48;;;;;;;27.25;15.15;;;-6.00;99.90;;;;;;5019798;28;20091;-53
2021/12/26 09:16:14;;;;;;;30.05;15.23;;;-6.10;99.90;;;;;;5054306;28;20546;-48
2021/12/26 09:18:40;;;;;;;24.90;14.30;;;-6.20;99.90;;;;;;5054713;28;20147;-49
2021/12/26 09:21:05;;;;;;;25.77;14.43;;;-6.10;99.90;;;;;;5053438;28;20036;-50
2021/12/26 09:23:31;;;;;;;27.65;15.75;;;-6.00;99.90;;;;;;5053888;28;20041;-50
2021/12/26 09:25:57;;;;;;;25.75;14.07;;;-6.10;99.90;;;;;;5054537;28;20040;-52
2021/12/26 09:28:23;;;;;;;24.55;14.77;;;-6.10;99.90;;;;;;5054131;28;20025;-53
2021/12/26 09:30:48;;;;;;;27.75;15.27;;;-6.10;99.90;;;;;;5036524;28;20061;-50
2021/12/26 09:33:19;;;;;;;50.90;23.98;;;-6.00;99.90;;;;;;5053673;28;20068;-53
2021/12/26 09:35:46;;;;;;;52.00;24.35;;;-5.90;99.90;;;;;;5036209;28;20095;-53
2021/12/26 09:38:12;;;;;;;42.58;20.92;;;-5.80;99.90;;;;;;5035860;28;20032;-52
2021/12/26 09:40:38;;;;;;;49.58;23.10;;;-5.60;99.90;;;;;;5048417;28;20498;-50
2021/12/26 09:43:04;;;;;;;87.93;34.17;;;-5.50;99.90;;;;;;5033691;28;20029;-51
2021/12/26 09:45:30;;;;;;;41.85;20.75;;;-5.40;99.90;;;;;;5033866;28;20037;-51
2021/12/26 09:47:55;;;;;;;36.83;18.80;;;-5.40;99.90;;;;;;5033865;28;20478;-52
2021/12/26 09:50:22;;;;;;;28.40;16.35;;;-5.30;99.90;;;;;;5050974;28;20067;-57
2021/12/26 09:52:49;;;;;;;26.42;16.50;;;-5.20;99.90;;;;;;5053123;28;20041;-50
2021/12/26 09:55:16;;;;;;;28.83;17.90;;;-5.10;99.90;;;;;;5052769;28;20041;-51
2021/12/26 09:57:42;;;;;;;28.33;17.13;;;-5.10;99.90;;;;;;5053477;28;20459;-55
2021/12/26 10:00:20;;;;;;;41.60;20.95;;;-4.90;99.90;;;;;;5053396;28;20392;-53
2021/12/26 10:03:05;;;;;;;30.25;18.02;;;-4.60;99.90;;;;;;5048398;28;20039;-47
2021/12/26 10:05:31;;;;;;;25.95;16.55;;;-4.40;99.90;;;;;;5052112;28;20048;-51
2021/12/26 10:08:06;;;;;;;31.30;16.63;;;-4.40;99.90;;;;;;5052217;28;20078;-50
2021/12/26 10:10:32;;;;;;;27.38;15.48;;;-4.40;99.90;;;;;;5053216;28;20024;-53
2021/12/26 10:12:57;;;;;;;31.48;16.45;;;-4.40;99.90;;;;;;5053847;28;20424;-49
2021/12/26 10:15:46;;;;;;;26.02;15.27;;;-4.40;99.90;;;;;;5053807;28;20094;-51
2021/12/26 10:18:28;;;;;;;26.67;16.38;;;-4.40;99.90;;;;;;5042324;28;20067;-56
2021/12/26 10:20:54;;;;;;;26.50;16.17;;;-4.40;99.90;;;;;;5052087;28;20783;-50
2021/12/26 10:23:25;;;;;;;26.40;16.58;;;-4.40;99.90;;;;;;5053033;28;20067;-52
2021/12/26 10:25:51;;;;;;;22.20;15.93;;;-4.30;99.90;;;;;;5052874;28;20025;-53
2021/12/26 10:28:16;;;;;;;24.20;15.88;;;-4.30;99.90;;;;;;5052796;28;20162;-55
2021/12/26 10:30:43;;;;;;;23.20;16.10;;;-4.30;99.90;;;;;;5034733;28;20066;-51
2021/12/26 10:33:09;;;;;;;23.60;15.13;;;-4.30;99.90;;;;;;5052694;28;20107;-53
2021/12/26 10:35:35;;;;;;;24.52;15.68;;;-4.30;99.90;;;;;;5052283;28;20460;-52
2021/12/26 10:38:00;;;;;;;24.38;15.52;;;-4.30;99.90;;;;;;5034761;28;20126;-50
2021/12/26 10:40:31;;;;;;;26.70;16.00;;;-4.40;99.90;;;;;;5052314;28;20491;-56
2021/12/26 10:42:58;;;;;;;23.83;15.73;;;-4.30;99.90;;;;;;5053012;28;20040;-50
2021/12/26 10:45:27;;;;;;;24.42;15.20;;;-4.20;99.90;;;;;;5035659;28;20049;-53
2021/12/26 10:47:57;;;;;;;21.52;15.65;;;-4.10;99.90;;;;;;5053429;28;20029;-49
2021/12/26 10:50:24;;;;;;;23.73;14.63;;;-4.20;99.90;;;;;;5053611;28;20033;-48
2021/12/26 10:52:58;;;;;;;24.20;14.75;;;-4.20;99.90;;;;;;5018766;28;20029;-52
2021/12/26 10:55:33;;;;;;;25.02;15.63;;;-4.20;99.90;;;;;;5053941;28;20028;-52
2021/12/26 10:58:13;;;;;;;24.75;14.32;;;-4.10;99.90;;;;;;5053092;28;20100;-50
2021/12/26 11:00:40;;;;;;;22.85;14.35;;;-4.00;99.90;;;;;;5053349;28;20377;-49
2021/12/26 11:03:18;;;;;;;24.95;14.25;;;-3.90;99.90;;;;;;5052855;28;20055;-50
2021/12/26 11:05:46;;;;;;;24.33;14.85;;;-3.90;99.90;;;;;;5053174;28;20542;-53
2021/12/26 11:08:13;;;;;;;20.73;14.18;;;-3.90;99.90;;;;;;5053738;28;20025;-50
2021/12/26 11:10:41;;;;;;;23.67;14.43;;;-3.90;99.90;;;;;;5052745;28;20033;-51
2021/12/26 11:13:31;;;;;;;22.77;14.07;;;-3.90;99.90;;;;;;5053076;28;20056;-51
2021/12/26 11:16:04;;;;;;;24.42;14.38;;;-3.90;99.90;;;;;;5053267;28;20026;-51
2021/12/26 11:18:29;;;;;;;25.73;15.07;;;-3.90;99.90;;;;;;5053704;28;20086;-51
2021/12/26 11:21:01;;;;;;;22.98;15.25;;;-3.90;99.70;;;;;;5053019;28;20116;-53
2021/12/26 11:23:33;;;;;;;26.08;15.18;;;-3.90;99.90;;;;;;5052909;28;20133;-52
2021/12/26 11:26:02;;;;;;;23.75;14.85;;;-3.70;99.80;;;;;;5053420;28;20040;-50
2021/12/26 11:28:30;;;;;;;21.63;15.27;;;-3.70;99.60;;;;;;5056648;28;20029;-52
2021/12/26 11:31:05;;;;;;;21.40;15.50;;;-3.60;99.70;;;;;;5055907;28;20527;-55
2021/12/26 11:33:32;;;;;;;22.70;14.23;;;-3.60;99.50;;;;;;5021578;28;20029;-52
2021/12/26 11:35:59;;;;;;;20.00;14.18;;;-3.70;99.70;;;;;;5056077;28;20029;-53
2021/12/26 11:38:27;;;;;;;19.42;13.90;;;-3.80;99.50;;;;;;5056595;28;20063;-52
2021/12/26 11:40:59;;;;;;;23.13;14.57;;;-3.80;99.90;;;;;;5056455;28;20033;-53
2021/12/26 11:43:43;;;;;;;25.48;15.00;;;-3.90;99.80;;;;;;5056125;28;20080;-50
2021/12/26 11:46:27;;;;;;;24.75;15.52;;;-4.00;99.90;;;;;;5055960;28;20025;-54
2021/12/26 11:49:07;;;;;;;24.30;15.52;;;-4.00;99.90;;;;;;5056436;28;20025;-51
2021/12/26 11:52:12;;;;;;;21.80;14.23;;;-3.90;99.90;;;;;;5037672;28;20032;-55
2021/12/26 11:54:45;;;;;;;23.95;15.52;;;-3.90;99.90;;;;;;5054940;28;20064;-55
2021/12/26 11:57:40;;;;;;;25.52;16.52;;;-4.00;99.90;;;;;;5055924;28;20111;-54
2021/12/26 12:00:17;;;;;;;23.23;15.25;;;-4.10;99.90;;;;;;5055810;28;20029;-60
2021/12/26 12:02:51;;;;;;;24.30;15.23;;;-4.10;99.90;;;;;;5051572;28;20098;-53
2021/12/26 12:05:23;;;;;;;22.73;14.57;;;-4.00;99.90;;;;;;5056185;28;20052;-55
2021/12/26 12:08:02;;;;;;;26.70;16.58;;;-3.80;99.90;;;;;;5056197;28;20615;-51
2021/12/26 12:10:56;;;;;;;26.08;17.20;;;-3.70;99.90;;;;;;5055664;28;20068;-47
2021/12/26 12:13:22;;;;;;;17.10;12.85;;;-3.60;99.90;;;;;;5055293;28;20033;-51
2021/12/26 12:16:05;;;;;;;26.08;17.00;;;-3.70;99.90;;;;;;5055801;28;20029;-53
2021/12/26 12:18:38;;;;;;;28.48;17.10;;;-3.60;99.90;;;;;;5055771;28;20045;-49
2021/12/26 12:21:22;;;;;;;25.70;16.27;;;-3.50;99.90;;;;;;5037615;28;20528;-52
2021/12/26 12:24:02;;;;;;;25.85;16.88;;;-3.40;99.90;;;;;;5040934;28;20372;-52
2021/12/26 12:26:47;;;;;;;23.60;15.50;;;-3.50;99.90;;;;;;5055978;28;20099;-52
2021/12/26 12:29:33;;;;;;;;;;;-3.50;99.90;;;;;;5055963;28;20072;-53
2021/12/26 12:32:08;;;;;;;28.58;16.70;;;-3.40;99.90;;;;;;5055965;28;19995;-49
2021/12/26 12:34:52;;;;;;;;;;;-3.40;99.90;;;;;;5055217;28;20056;-53
2021/12/26 12:37:44;;;;;;;23.80;14.48;;;-3.40;99.90;;;;;;5054982;28;19917;-52
2021/12/26 12:40:28;;;;;;;25.13;15.35;;;-3.30;99.90;;;;;;5055122;28;20064;-53
2021/12/26 12:43:05;;;;;;;26.52;16.50;;;-3.30;99.90;;;;;;5055250;28;20538;-52
2021/12/26 12:46:01;;;;;;;24.08;16.42;;;-3.40;99.90;;;;;;5037312;28;20047;-53